Time;durP1;ratioP1;P1;durP2;ratioP2;P2;SDS_P1;SDS_P2;PMS_P1;PMS_P2;Temp;Humidity;BMP_temperature;BMP_pressure;BME280_temperature;BME280_humidity;BME280_pressure;Samples;Min_cycle;Max_cycle;Signal;HPM_P1;HPM_P2
2022/06/26 00:00:47;;;;;;;5.20;3.77;;;20.50;76.50;;;;;;5089274;28;20220;-73
2022/06/26 00:03:13;;;;;;;7.23;3.90;;;20.30;76.70;;;;;;5076227;28;20204;-73
2022/06/26 00:05:38;;;;;;;6.70;4.17;;;20.30;76.70;;;;;;5073305;28;20194;-72
2022/06/26 00:08:05;;;;;;;5.53;4.03;;;20.30;76.80;;;;;;5086108;28;20926;-73
2022/06/26 00:10:31;;;;;;;6.93;4.30;;;20.30;76.80;;;;;;5092559;28;20203;-72
2022/06/26 00:12:57;;;;;;;6.50;4.37;;;20.30;76.80;;;;;;5084826;28;20430;-72
2022/06/26 00:15:23;;;;;;;3.87;3.73;;;20.30;76.70;;;;;;5086953;28;20180;-72
2022/06/26 00:17:48;;;;;;;4.80;3.70;;;20.30;76.50;;;;;;5084273;28;20303;-72
2022/06/26 00:20:14;;;;;;;7.17;4.10;;;20.20;77.10;;;;;;5084630;28;20227;-73
2022/06/26 00:22:41;;;;;;;6.40;3.80;;;20.10;77.60;;;;;;5093102;28;20641;-72
2022/06/26 00:25:08;;;;;;;5.00;3.67;;;20.00;77.80;;;;;;5081382;28;20702;-74
2022/06/26 00:27:34;;;;;;;3.77;3.63;;;19.90;78.00;;;;;;5083918;28;20452;-73
2022/06/26 00:30:00;;;;;;;4.33;3.90;;;19.90;78.30;;;;;;5080349;28;20469;-73
2022/06/26 00:32:26;;;;;;;5.67;3.70;;;19.90;78.30;;;;;;5087215;28;20440;-72
2022/06/26 00:34:52;;;;;;;4.40;3.80;;;19.80;78.90;;;;;;5088787;28;20267;-73
2022/06/26 00:37:17;;;;;;;5.00;3.60;;;19.80;78.90;;;;;;5092143;28;20659;-74
2022/06/26 00:39:43;;;;;;;7.37;4.40;;;19.80;78.70;;;;;;5064906;28;20184;-75
2022/06/26 00:42:09;;;;;;;7.67;4.40;;;19.80;79.00;;;;;;5080740;28;20180;-73
2022/06/26 00:44:35;;;;;;;5.50;3.83;;;19.70;79.30;;;;;;5087232;28;20203;-74
2022/06/26 00:47:00;;;;;;;5.03;4.10;;;19.80;79.30;;;;;;5083716;28;20588;-74
2022/06/26 00:49:26;;;;;;;5.30;4.23;;;19.90;79.20;;;;;;5086809;28;20697;-74
2022/06/26 00:51:54;;;;;;;5.80;4.00;;;20.00;78.70;;;;;;5084126;28;20587;-74
2022/06/26 00:54:23;;;;;;;5.37;4.20;;;20.20;77.80;;;;;;5084155;28;20510;-75
2022/06/26 00:56:49;;;;;;;6.70;4.03;;;20.30;77.00;;;;;;5092205;28;20425;-73
2022/06/26 00:59:15;;;;;;;5.53;3.80;;;20.30;76.50;;;;;;5082104;28;20422;-74
2022/06/26 01:01:41;;;;;;;7.60;3.50;;;20.30;76.40;;;;;;5074078;28;20258;-74
2022/06/26 01:04:07;;;;;;;5.73;3.23;;;20.40;76.20;;;;;;5083878;28;20489;-73
2022/06/26 01:06:35;;;;;;;4.20;3.37;;;20.50;75.20;;;;;;5085487;28;20490;-74
2022/06/26 01:09:03;;;;;;;3.57;3.43;;;20.60;74.50;;;;;;5091963;28;20422;-73
2022/06/26 01:11:29;;;;;;;4.50;3.63;;;20.70;74.00;;;;;;5083523;28;20878;-73
2022/06/26 01:13:57;;;;;;;3.47;2.93;;;20.80;73.60;;;;;;5080460;28;20481;-74
2022/06/26 01:16:24;;;;;;;3.53;2.73;;;20.90;73.30;;;;;;5081341;28;20191;-74
2022/06/26 01:18:52;;;;;;;4.03;2.80;;;21.00;73.20;;;;;;5072204;28;20430;-74
2022/06/26 01:21:19;;;;;;;4.40;2.80;;;21.10;73.20;;;;;;5091556;28;20928;-74
2022/06/26 01:23:46;;;;;;;3.87;3.03;;;21.10;73.20;;;;;;5083569;28;20471;-74
2022/06/26 01:26:12;;;;;;;3.83;3.60;;;21.20;72.90;;;;;;5084705;28;20433;-74
2022/06/26 01:28:38;;;;;;;3.00;2.80;;;21.20;72.70;;;;;;5091706;28;20425;-74
2022/06/26 01:31:04;;;;;;;4.40;2.70;;;21.20;72.70;;;;;;5083278;28;20463;-75
2022/06/26 01:33:30;;;;;;;4.10;2.80;;;21.20;72.70;;;;;;5083715;28;20435;-75
2022/06/26 01:35:56;;;;;;;3.03;2.77;;;21.20;72.40;;;;;;5089192;28;20431;-74
2022/06/26 01:38:23;;;;;;;5.07;2.93;;;21.30;72.40;;;;;;5084086;28;20536;-75
2022/06/26 01:40:53;;;;;;;3.93;3.17;;;21.20;72.90;;;;;;5091102;28;20217;-74
2022/06/26 01:43:21;;;;;;;3.17;2.40;;;21.30;73.00;;;;;;5073224;28;20903;-77
2022/06/26 01:45:55;;;;;;;5.43;2.80;;;21.30;72.90;;;;;;5072819;28;20443;-73
2022/06/26 01:48:22;;;;;;;5.03;2.87;;;21.20;73.00;;;;;;5085837;28;20512;-73
2022/06/26 01:50:48;;;;;;;3.20;3.00;;;21.20;73.50;;;;;;5091618;28;20439;-74
2022/06/26 01:53:15;;;;;;;5.43;3.27;;;21.40;73.20;;;;;;5081513;28;20448;-74
2022/06/26 01:55:41;;;;;;;3.40;3.10;;;21.40;72.40;;;;;;5073019;28;20439;-76
2022/06/26 01:58:08;;;;;;;4.63;2.90;;;21.30;72.60;;;;;;5082125;28;20747;-74
2022/06/26 02:00:37;;;;;;;3.97;3.23;;;21.30;73.00;;;;;;5081476;28;20443;-75
2022/06/26 02:03:04;;;;;;;3.90;3.47;;;21.30;73.20;;;;;;5082853;28;20431;-74
2022/06/26 02:05:30;;;;;;;3.80;3.27;;;21.20;73.30;;;;;;5072658;28;20427;-74
2022/06/26 02:07:56;;;;;;;3.67;3.00;;;21.10;73.60;;;;;;5082843;28;20450;-73
2022/06/26 02:15:55;;;;;;;3.53;3.27;;;21.40;72.90;;;;;;5087911;28;20434;-74
2022/06/26 02:18:21;;;;;;;4.90;3.57;;;21.40;72.90;;;;;;5092501;28;20407;-74
2022/06/26 02:20:47;;;;;;;7.67;3.10;;;21.40;73.00;;;;;;5084773;28;20488;-74
2022/06/26 02:23:14;;;;;;;3.87;3.40;;;21.40;72.90;;;;;;5075289;28;20207;-74
2022/06/26 02:25:40;;;;;;;4.10;3.30;;;21.30;73.00;;;;;;5085295;28;20905;-75
2022/06/26 02:28:06;;;;;;;5.60;3.23;;;21.20;73.30;;;;;;5084729;28;20420;-74
2022/06/26 02:30:32;;;;;;;3.90;2.90;;;21.30;73.30;;;;;;5074574;28;20454;-74
2022/06/26 02:32:58;;;;;;;5.67;2.90;;;21.20;73.60;;;;;;5081924;28;20423;-73
2022/06/26 02:35:25;;;;;;;4.20;2.90;;;21.20;74.00;;;;;;5079920;28;20418;-72
2022/06/26 02:37:54;;;;;;;4.30;3.33;;;21.20;74.20;;;;;;5086419;28;20189;-73
2022/06/26 02:40:21;;;;;;;3.60;3.07;;;21.10;74.60;;;;;;5090569;28;20833;-73
2022/06/26 02:42:47;;;;;;;4.57;2.90;;;21.10;74.80;;;;;;5072047;28;20432;-73
2022/06/26 02:45:13;;;;;;;6.03;3.43;;;21.00;75.10;;;;;;5085727;28;20479;-74
2022/06/26 02:47:39;;;;;;;4.23;2.87;;;20.90;75.50;;;;;;5085698;28;20421;-73
2022/06/26 02:50:06;;;;;;;9.27;3.30;;;20.90;75.90;;;;;;5080843;28;20444;-74
2022/06/26 02:52:32;;;;;;;5.50;3.10;;;21.00;75.90;;;;;;5083829;28;20417;-73
2022/06/26 02:54:57;;;;;;;4.03;3.00;;;21.00;75.70;;;;;;5087650;28;20526;-75
2022/06/26 02:57:23;;;;;;;3.80;2.83;;;20.90;75.90;;;;;;5089824;28;20465;-74
2022/06/26 02:59:49;;;;;;;5.17;3.60;;;20.90;76.20;;;;;;5081417;28;20214;-73
2022/06/26 03:02:15;;;;;;;3.30;2.80;;;20.90;76.20;;;;;;5082159;28;20213;-73
2022/06/26 03:04:42;;;;;;;4.10;2.77;;;20.90;76.70;;;;;;5090035;28;20476;-73
2022/06/26 03:07:08;;;;;;;3.23;2.90;;;20.80;76.80;;;;;;5089827;28;20181;-73
2022/06/26 03:09:34;;;;;;;7.40;3.00;;;20.80;76.40;;;;;;5082270;28;20418;-73
2022/06/26 03:11:59;;;;;;;3.87;3.10;;;20.80;76.40;;;;;;5081703;28;20192;-73
2022/06/26 03:14:28;;;;;;;5.07;3.50;;;20.70;77.00;;;;;;5084288;28;20209;-74
2022/06/26 03:16:54;;;;;;;5.93;3.20;;;20.60;77.40;;;;;;5088597;28;20192;-73
2022/06/26 03:19:20;;;;;;;3.53;3.33;;;20.50;77.80;;;;;;5079050;28;20434;-73
2022/06/26 03:21:46;;;;;;;5.00;2.90;;;20.50;78.00;;;;;;5091433;28;20213;-74
2022/06/26 03:24:11;;;;;;;4.00;2.70;;;20.50;78.40;;;;;;5072227;28;20468;-73
2022/06/26 03:26:38;;;;;;;5.23;3.00;;;20.50;78.30;;;;;;5083282;28;20683;-74
2022/06/26 03:29:10;;;;;;;4.43;3.27;;;20.40;78.30;;;;;;5087834;28;20230;-74
2022/06/26 03:31:36;;;;;;;4.20;3.03;;;20.30;79.20;;;;;;5086393;28;20450;-73
2022/06/26 03:34:03;;;;;;;4.37;3.20;;;20.30;79.20;;;;;;5082584;28;20422;-74
2022/06/26 03:36:29;;;;;;;3.40;2.90;;;20.40;78.90;;;;;;5085161;28;20474;-73
2022/06/26 03:38:55;;;;;;;4.67;2.90;;;20.50;78.40;;;;;;5088574;28;20441;-75
2022/06/26 03:41:21;;;;;;;3.83;2.70;;;20.60;78.10;;;;;;5089930;28;20446;-74
2022/06/26 03:43:48;;;;;;;4.40;2.83;;;20.60;78.00;;;;;;5081274;28;20480;-74
2022/06/26 03:46:14;;;;;;;4.23;2.70;;;20.60;77.60;;;;;;5081929;28;20511;-72
2022/06/26 03:48:40;;;;;;;3.60;2.90;;;20.50;77.70;;;;;;5078786;28;20845;-73
2022/06/26 03:51:07;;;;;;;4.00;2.90;;;20.50;77.70;;;;;;5089024;28;20525;-73
2022/06/26 03:53:33;;;;;;;3.40;2.70;;;20.50;77.80;;;;;;5081532;28;20437;-73
2022/06/26 03:55:59;;;;;;;3.33;2.67;;;20.50;77.70;;;;;;5076964;28;20430;-73
2022/06/26 03:58:25;;;;;;;7.80;2.70;;;20.60;77.70;;;;;;5083703;28;20518;-73
2022/06/26 04:00:52;;;;;;;2.70;2.40;;;20.60;77.80;;;;;;5087943;28;20704;-74
2022/06/26 04:03:18;;;;;;;5.13;3.40;;;20.60;77.70;;;;;;5085732;28;20211;-72
2022/06/26 04:05:44;;;;;;;4.03;3.07;;;20.40;78.40;;;;;;5085083;28;20935;-72
2022/06/26 04:08:10;;;;;;;3.13;2.90;;;20.30;79.30;;;;;;5086332;28;20548;-72
2022/06/26 04:10:36;;;;;;;4.30;2.43;;;20.30;79.30;;;;;;5083776;28;20445;-73
2022/06/26 04:13:05;;;;;;;5.17;3.97;;;20.20;80.00;;;;;;5084797;28;20520;-73
2022/06/26 04:15:33;;;;;;;4.30;3.27;;;20.10;80.80;;;;;;5084223;28;20417;-73
2022/06/26 04:17:59;;;;;;;4.10;3.20;;;19.90;81.10;;;;;;5084119;28;20417;-73
2022/06/26 04:20:26;;;;;;;4.00;3.03;;;19.90;81.20;;;;;;5074679;28;20517;-73
2022/06/26 04:22:59;;;;;;;3.53;3.00;;;19.90;80.90;;;;;;5074785;28;20425;-73
2022/06/26 04:25:25;;;;;;;5.63;3.10;;;19.90;81.20;;;;;;5092939;28;20417;-72
2022/06/26 04:27:51;;;;;;;4.60;2.80;;;20.00;80.90;;;;;;5083009;28;20910;-72
2022/06/26 04:30:18;;;;;;;4.73;3.27;;;20.10;80.30;;;;;;5082099;28;20524;-72
2022/06/26 04:32:44;;;;;;;5.77;2.97;;;20.10;80.20;;;;;;5084199;28;20433;-74
2022/06/26 04:35:10;;;;;;;2.77;2.50;;;20.10;80.20;;;;;;5089964;28;20418;-73
2022/06/26 04:37:37;;;;;;;3.93;3.07;;;20.10;80.00;;;;;;5093436;28;20262;-72
2022/06/26 04:40:05;;;;;;;2.90;2.37;;;20.10;80.00;;;;;;5091801;28;20537;-73
2022/06/26 04:42:31;;;;;;;3.77;2.27;;;20.20;79.60;;;;;;5087197;28;20426;-74
2022/06/26 04:44:57;;;;;;;3.00;1.90;;;20.20;78.00;;;;;;5091124;28;20465;-73
2022/06/26 04:47:23;;;;;;;3.37;2.03;;;20.20;77.60;;;;;;5091734;28;20418;-74
2022/06/26 04:49:48;;;;;;;5.53;2.23;;;20.20;77.30;;;;;;5084441;28;20777;-73
2022/06/26 04:52:15;;;;;;;2.90;2.13;;;20.30;77.30;;;;;;5088719;28;20187;-74
2022/06/26 04:54:42;;;;;;;2.30;2.10;;;20.30;76.50;;;;;;5092585;28;20276;-73
2022/06/26 04:57:08;;;;;;;1.87;1.83;;;20.30;76.50;;;;;;5094390;28;20421;-72
2022/06/26 04:59:34;;;;;;;2.83;2.10;;;20.30;76.50;;;;;;5091208;28;20510;-74
2022/06/26 05:02:00;;;;;;;2.73;2.13;;;20.40;76.80;;;;;;5085831;28;20215;-74
2022/06/26 05:04:25;;;;;;;2.53;2.20;;;20.50;77.10;;;;;;5093847;28;20683;-73
2022/06/26 05:06:54;;;;;;;3.27;2.10;;;20.60;75.90;;;;;;5083391;28;20213;-73
2022/06/26 05:09:21;;;;;;;2.77;2.17;;;20.70;75.80;;;;;;5068484;28;20179;-73
2022/06/26 05:11:47;;;;;;;2.20;2.00;;;20.70;75.20;;;;;;5085221;28;20476;-74
2022/06/26 05:14:13;;;;;;;3.70;2.77;;;20.70;75.80;;;;;;5087334;28;20438;-74
2022/06/26 05:16:38;;;;;;;4.73;3.10;;;20.70;77.00;;;;;;5077158;28;20560;-73
2022/06/26 05:19:05;;;;;;;3.77;3.00;;;20.70;77.80;;;;;;5089999;28;20943;-73
2022/06/26 05:21:30;;;;;;;5.23;3.00;;;20.80;78.00;;;;;;5092975;28;20209;-74
2022/06/26 05:23:56;;;;;;;4.20;2.77;;;20.80;78.10;;;;;;5090942;28;20466;-74
2022/06/26 05:26:23;;;;;;;4.47;3.13;;;20.80;78.30;;;;;;5087172;28;20232;-74
2022/06/26 05:28:50;;;;;;;3.27;2.90;;;20.70;78.70;;;;;;5082670;28;20210;-73
2022/06/26 05:31:16;;;;;;;3.07;2.90;;;20.60;78.60;;;;;;5079854;28;20438;-72
2022/06/26 05:33:42;;;;;;;3.70;2.93;;;20.60;79.00;;;;;;5083604;28;20191;-72
2022/06/26 05:36:08;;;;;;;5.47;3.70;;;20.50;80.00;;;;;;5083061;28;20410;-73
2022/06/26 05:38:38;;;;;;;5.27;3.60;;;20.40;80.50;;;;;;5087184;28;20189;-73
2022/06/26 05:41:04;;;;;;;3.53;3.20;;;20.40;80.90;;;;;;5091381;28;20437;-72
2022/06/26 05:43:30;;;;;;;6.03;3.77;;;20.40;81.20;;;;;;5083031;28;20458;-72
2022/06/26 05:45:57;;;;;;;5.70;3.43;;;20.40;81.40;;;;;;5082348;28;20448;-74
2022/06/26 05:48:24;;;;;;;5.17;3.70;;;20.40;81.50;;;;;;5072450;28;20437;-73
2022/06/26 05:50:50;;;;;;;4.43;3.47;;;20.40;81.40;;;;;;5091257;28;20449;-73
2022/06/26 05:53:16;;;;;;;5.63;3.37;;;20.40;81.10;;;;;;5084465;28;20442;-73
2022/06/26 05:55:42;;;;;;;3.33;3.13;;;20.50;80.50;;;;;;5083339;28;20909;-73
2022/06/26 05:58:09;;;;;;;5.00;3.13;;;20.50;80.50;;;;;;5091990;28;20419;-72
2022/06/26 06:00:35;;;;;;;4.30;3.50;;;20.40;80.20;;;;;;5095822;28;20199;-73
2022/06/26 06:03:01;;;;;;;6.13;3.40;;;20.40;80.90;;;;;;5078443;28;20930;-73
2022/06/26 06:05:27;;;;;;;4.47;3.40;;;20.40;80.90;;;;;;5090189;28;20426;-75
2022/06/26 06:07:54;;;;;;;3.23;2.93;;;20.50;80.80;;;;;;5086187;28;20427;-73
2022/06/26 06:10:20;;;;;;;4.93;2.80;;;20.50;80.00;;;;;;5092996;28;20227;-74
2022/06/26 06:12:47;;;;;;;3.30;3.10;;;20.60;79.00;;;;;;5085054;28;20486;-75
2022/06/26 06:15:12;;;;;;;4.77;3.40;;;20.60;79.00;;;;;;5074414;28;20910;-75
2022/06/26 06:17:41;;;;;;;3.60;3.20;;;20.60;79.20;;;;;;5082880;28;20434;-74
2022/06/26 06:20:19;;;;;;;3.00;2.63;;;20.70;79.50;;;;;;5083063;28;20232;-74
2022/06/26 06:22:54;;;;;;;3.13;2.87;;;20.80;79.30;;;;;;5079850;28;20427;-73
2022/06/26 06:25:21;;;;;;;2.97;2.70;;;20.90;78.70;;;;;;5091489;28;20956;-74
2022/06/26 06:27:48;;;;;;;6.93;2.60;;;20.90;77.70;;;;;;5082679;28;20418;-74
2022/06/26 06:30:15;;;;;;;6.87;2.90;;;21.00;77.40;;;;;;5080450;28;20445;-74
2022/06/26 06:32:41;;;;;;;4.50;3.00;;;21.10;76.80;;;;;;5085181;28;20442;-74
2022/06/26 06:35:13;;;;;;;2.67;2.33;;;21.10;73.70;;;;;;5093374;28;20441;-74
2022/06/26 06:37:42;;;;;;;3.30;2.30;;;21.00;73.50;;;;;;5084841;28;20423;-74
2022/06/26 06:40:09;;;;;;;3.83;2.90;;;21.10;73.70;;;;;;5090337;28;20550;-74
2022/06/26 06:42:35;;;;;;;3.10;2.70;;;21.20;73.50;;;;;;5089348;28;20432;-73
2022/06/26 06:45:01;;;;;;;3.77;2.80;;;21.30;73.90;;;;;;5083850;28;21001;-75
2022/06/26 06:47:27;;;;;;;4.10;2.83;;;21.30;74.50;;;;;;5072722;28;20540;-75
2022/06/26 06:49:53;;;;;;;3.67;2.63;;;21.30;73.90;;;;;;5087336;28;20453;-73
2022/06/26 06:52:18;;;;;;;3.37;2.50;;;21.40;73.30;;;;;;5070659;28;20388;-74
2022/06/26 06:54:44;;;;;;;5.33;3.30;;;21.40;73.20;;;;;;5083805;28;20217;-75
2022/06/26 06:57:10;;;;;;;3.90;2.87;;;21.50;72.40;;;;;;5086543;28;20186;-73
2022/06/26 06:59:35;;;;;;;4.30;2.80;;;21.50;72.90;;;;;;5090162;28;20197;-74
2022/06/26 07:02:01;;;;;;;4.53;3.20;;;21.50;72.90;;;;;;5081710;28;20238;-74
2022/06/26 07:04:27;;;;;;;2.60;2.43;;;21.60;72.30;;;;;;5071674;28;20242;-74
2022/06/26 07:06:53;;;;;;;2.70;2.30;;;21.70;71.40;;;;;;5081887;28;20185;-74
2022/06/26 07:09:19;;;;;;;2.90;2.30;;;21.60;69.50;;;;;;5081992;28;20249;-74
2022/06/26 07:11:45;;;;;;;3.33;2.67;;;21.70;69.90;;;;;;5081942;28;21035;-73
2022/06/26 07:14:11;;;;;;;3.57;2.73;;;21.70;70.40;;;;;;5089909;28;20579;-76
2022/06/26 07:16:37;;;;;;;3.37;2.87;;;21.80;71.00;;;;;;5072493;28;20206;-75
2022/06/26 07:19:03;;;;;;;3.80;2.87;;;21.70;71.40;;;;;;5081391;28;20190;-74
2022/06/26 07:21:29;;;;;;;2.67;2.33;;;21.60;71.30;;;;;;5079596;28;20212;-74
2022/06/26 07:23:55;;;;;;;2.87;2.70;;;21.70;69.80;;;;;;5063310;28;20473;-75
2022/06/26 07:26:21;;;;;;;4.83;3.10;;;21.70;70.20;;;;;;5081928;28;20430;-74
2022/06/26 07:28:46;;;;;;;4.20;3.17;;;21.80;71.30;;;;;;5080916;28;20237;-74
2022/06/26 07:31:12;;;;;;;3.47;3.13;;;21.80;71.80;;;;;;5083583;28;20209;-75
2022/06/26 07:36:22;;;;;;;4.50;2.93;;;21.70;71.10;;;;;;5080962;28;20190;-74
2022/06/26 07:38:48;;;;;;;4.30;2.50;;;21.70;70.80;;;;;;5090818;28;20789;-75
2022/06/26 07:41:14;;;;;;;3.50;2.43;;;21.90;70.50;;;;;;5096621;28;20206;-73
2022/06/26 07:43:39;;;;;;;3.03;2.60;;;22.10;69.80;;;;;;5092958;28;20707;-74
2022/06/26 07:46:06;;;;;;;2.73;2.63;;;22.20;69.50;;;;;;5085653;28;20273;-74
2022/06/26 07:48:32;;;;;;;6.17;2.77;;;22.20;69.50;;;;;;5086451;28;20186;-74
2022/06/26 07:50:58;;;;;;;2.47;2.30;;;22.40;69.20;;;;;;5093129;28;20964;-76
2022/06/26 07:53:24;;;;;;;3.13;2.63;;;22.50;68.20;;;;;;5085614;28;20921;-74
2022/06/26 07:55:51;;;;;;;3.47;2.63;;;22.50;67.90;;;;;;5072335;28;20432;-74
2022/06/26 07:58:17;;;;;;;3.80;2.67;;;22.40;67.60;;;;;;5087431;28;20662;-75
2022/06/26 08:00:42;;;;;;;9.00;2.40;;;22.50;67.60;;;;;;5087781;28;20460;-74
2022/06/26 08:03:13;;;;;;;7.00;2.50;;;22.50;67.00;;;;;;5088758;28;20201;-75
2022/06/26 08:05:40;;;;;;;2.50;2.30;;;22.60;67.00;;;;;;5087526;28;20266;-75
2022/06/26 08:08:07;;;;;;;4.80;2.53;;;22.60;66.30;;;;;;5091603;28;20414;-75
2022/06/26 08:10:33;;;;;;;3.80;2.47;;;22.70;66.30;;;;;;5097550;28;20434;-74
2022/06/26 08:12:59;;;;;;;3.13;2.30;;;22.70;65.80;;;;;;5089929;28;20546;-74
2022/06/26 08:15:26;;;;;;;2.60;2.40;;;22.60;66.30;;;;;;5083884;28;20460;-75
2022/06/26 08:17:52;;;;;;;4.17;2.80;;;22.70;66.30;;;;;;5088301;28;20202;-74
2022/06/26 08:20:18;;;;;;;4.23;2.77;;;22.80;66.10;;;;;;5085570;28;20557;-74
2022/06/26 08:22:44;;;;;;;4.07;2.50;;;22.80;66.10;;;;;;5093628;28;20188;-75
2022/06/26 08:25:10;;;;;;;4.77;2.97;;;22.90;65.70;;;;;;5075313;28;20751;-73
2022/06/26 08:27:35;;;;;;;5.97;2.47;;;22.90;65.70;;;;;;5086322;28;20184;-74
2022/06/26 08:30:02;;;;;;;3.50;2.33;;;23.00;66.00;;;;;;5092037;28;20210;-73
2022/06/26 08:32:28;;;;;;;2.87;2.23;;;22.80;66.10;;;;;;5085211;28;20184;-73
2022/06/26 08:34:54;;;;;;;3.17;2.50;;;22.60;67.00;;;;;;5081989;28;20433;-74
2022/06/26 08:37:19;;;;;;;2.40;2.00;;;22.70;67.20;;;;;;5089184;28;20186;-73
2022/06/26 08:39:45;;;;;;;2.70;2.50;;;22.80;67.00;;;;;;5092589;28;20223;-74
2022/06/26 08:42:12;;;;;;;3.27;2.10;;;23.00;66.10;;;;;;5092852;28;20648;-74
2022/06/26 08:44:46;;;;;;;2.23;2.03;;;22.90;65.60;;;;;;5072897;28;20462;-74
2022/06/26 08:47:13;;;;;;;2.90;2.47;;;22.90;66.30;;;;;;5062130;28;20438;-75
2022/06/26 08:49:41;;;;;;;5.23;2.60;;;23.00;66.30;;;;;;5080128;28;20419;-72
2022/06/26 08:52:10;;;;;;;2.53;2.37;;;22.90;66.30;;;;;;5069234;28;20423;-73
2022/06/26 08:54:37;;;;;;;2.33;2.17;;;22.90;66.60;;;;;;5073066;28;20428;-72
2022/06/26 08:57:04;;;;;;;3.20;2.50;;;22.90;67.00;;;;;;5089157;28;20513;-71
2022/06/26 08:59:30;;;;;;;2.70;2.47;;;22.90;67.00;;;;;;5083352;28;20525;-73
2022/06/26 09:01:56;;;;;;;2.30;2.10;;;22.70;67.30;;;;;;5079865;28;20476;-72
2022/06/26 09:04:22;;;;;;;2.60;2.10;;;22.90;67.20;;;;;;5082786;28;20529;-73
2022/06/26 09:06:48;;;;;;;3.10;2.20;;;22.90;66.90;;;;;;5082977;28;20193;-74
2022/06/26 09:09:24;;;;;;;2.60;2.47;;;23.10;66.90;;;;;;5079883;28;20424;-73
2022/06/26 09:11:52;;;;;;;2.47;1.90;;;23.10;66.10;;;;;;5083575;28;20445;-72
2022/06/26 09:14:19;;;;;;;3.03;2.20;;;23.10;65.70;;;;;;5087387;28;20433;-73
2022/06/26 09:16:47;;;;;;;2.80;2.07;;;23.10;66.10;;;;;;5092403;28;20533;-73
2022/06/26 09:19:19;;;;;;;3.20;2.27;;;23.20;66.00;;;;;;5083162;28;20431;-74
2022/06/26 09:21:47;;;;;;;2.60;2.40;;;23.20;65.40;;;;;;5084322;28;20449;-74
2022/06/26 09:24:15;;;;;;;4.53;2.00;;;23.40;65.40;;;;;;5091793;28;20455;-74
2022/06/26 09:26:43;;;;;;;2.83;2.00;;;23.50;64.50;;;;;;5091888;28;20438;-73
2022/06/26 09:29:14;;;;;;;2.93;2.40;;;23.50;64.20;;;;;;5079123;28;20447;-73
2022/06/26 09:31:41;;;;;;;2.33;1.83;;;23.30;65.40;;;;;;5091586;28;20435;-73
2022/06/26 09:34:19;;;;;;;3.23;2.10;;;23.50;65.10;;;;;;5083144;28;20427;-74
2022/06/26 09:37:00;;;;;;;2.40;1.90;;;23.60;64.20;;;;;;5083405;28;20424;-74
2022/06/26 09:39:27;;;;;;;2.27;2.07;;;23.70;64.10;;;;;;5091307;28;20415;-75
2022/06/26 09:41:53;;;;;;;2.90;2.00;;;23.70;63.50;;;;;;5089995;28;20447;-74
2022/06/26 09:44:20;;;;;;;2.40;2.20;;;23.90;63.70;;;;;;5091326;28;20467;-73
2022/06/26 09:46:45;;;;;;;2.93;2.40;;;24.10;62.60;;;;;;5081745;28;20420;-73
2022/06/26 09:49:11;;;;;;;2.33;1.90;;;24.20;62.20;;;;;;5073709;28;20430;-74
2022/06/26 09:51:38;;;;;;;3.33;2.10;;;24.10;62.00;;;;;;5086360;28;20236;-73
2022/06/26 09:54:05;;;;;;;2.80;2.13;;;24.00;63.20;;;;;;5080737;28;20198;-74
2022/06/26 09:56:31;;;;;;;2.57;2.10;;;24.30;62.30;;;;;;5081735;28;20434;-73
2022/06/26 09:58:59;;;;;;;2.40;2.07;;;24.40;61.90;;;;;;5083392;28;20424;-74
2022/06/26 10:07:00;;;;;;;2.73;2.30;;;24.70;60.70;;;;;;5099115;28;20495;-73
2022/06/26 10:09:28;;;;;;;2.43;2.30;;;25.00;60.40;;;;;;5102574;28;20452;-73
2022/06/26 10:11:56;;;;;;;2.93;2.57;;;24.90;60.60;;;;;;5081566;28;21178;-72
2022/06/26 10:14:25;;;;;;;5.50;2.33;;;24.80;61.00;;;;;;5081335;28;20428;-73
2022/06/26 10:16:54;;;;;;;5.67;4.13;;;24.80;61.00;;;;;;5073129;28;20927;-74
2022/06/26 10:19:29;;;;;;;2.23;2.03;;;24.80;61.00;;;;;;5081173;28;20510;-73
2022/06/26 10:21:55;;;;;;;2.97;2.60;;;24.80;61.30;;;;;;5095513;28;20452;-74
2022/06/26 10:24:21;;;;;;;2.60;2.40;;;24.90;61.00;;;;;;5083010;28;20458;-73
2022/06/26 10:26:57;;;;;;;3.30;2.10;;;25.10;60.00;;;;;;5080087;28;20553;-72
2022/06/26 10:29:38;;;;;;;4.63;2.00;;;25.30;59.70;;;;;;5085923;28;20205;-73
2022/06/26 10:32:05;;;;;;;4.33;2.27;;;25.80;58.90;;;;;;5087923;28;20449;-73
2022/06/26 10:34:31;;;;;;;2.80;2.10;;;25.90;59.10;;;;;;5085317;28;20435;-72
2022/06/26 10:37:05;;;;;;;3.07;2.87;;;26.20;58.80;;;;;;5083579;28;20428;-74
2022/06/26 10:39:42;;;;;;;2.17;2.03;;;25.60;59.90;;;;;;5074523;28;20442;-74
2022/06/26 10:45:18;;;;;;;1.83;1.77;;;25.50;59.70;;;;;;5081289;28;20469;-73
2022/06/26 10:47:52;;;;;;;4.87;2.43;;;25.50;60.40;;;;;;5092454;28;20425;-75
2022/06/26 10:50:27;;;;;;;2.20;2.00;;;25.80;58.80;;;;;;5078770;28;20464;-73
2022/06/26 10:53:21;;;;;;;3.57;2.10;;;26.10;58.80;;;;;;5087344;28;20477;-73
2022/06/26 10:55:51;;;;;;;5.70;2.40;;;26.60;57.60;;;;;;5081561;28;20427;-74
2022/06/26 10:58:25;;;;;;;3.53;2.33;;;26.90;56.40;;;;;;5082759;28;20511;-74
2022/06/26 11:00:52;;;;;;;5.57;2.40;;;27.20;55.30;;;;;;5079596;28;20526;-75
2022/06/26 11:03:19;;;;;;;2.63;2.20;;;26.70;55.20;;;;;;5086887;28;20456;-72
2022/06/26 11:06:15;;;;;;;2.90;2.10;;;26.70;55.20;;;;;;5073004;28;20426;-74
2022/06/26 11:08:49;;;;;;;3.47;2.50;;;27.10;54.90;;;;;;5073010;28;20478;-74
2022/06/26 11:11:27;;;;;;;2.27;2.10;;;27.20;55.30;;;;;;5086770;28;20471;-73
2022/06/26 11:14:07;;;;;;;2.23;2.00;;;26.90;55.70;;;;;;5083978;28;20421;-73
2022/06/26 11:16:42;;;;;;;2.73;2.20;;;26.70;56.90;;;;;;5096393;28;20417;-74
2022/06/26 11:19:26;;;;;;;2.67;2.20;;;27.00;56.10;;;;;;5089489;28;20415;-73
2022/06/26 11:22:09;;;;;;;4.83;2.60;;;26.90;56.10;;;;;;5090498;28;20443;-74
2022/06/26 11:24:47;;;;;;;3.00;2.30;;;26.70;56.20;;;;;;5086932;28;20495;-74
2022/06/26 11:27:14;;;;;;;3.73;2.60;;;26.60;56.80;;;;;;5084334;28;20453;-73
2022/06/26 11:29:40;;;;;;;3.00;2.33;;;26.70;55.40;;;;;;5075566;28;20431;-74
2022/06/26 11:32:07;;;;;;;2.13;1.90;;;26.70;55.40;;;;;;5091210;28;20440;-75
2022/06/26 11:34:33;;;;;;;3.20;1.77;;;26.90;54.40;;;;;;5080865;28;20428;-73
2022/06/26 11:37:00;;;;;;;2.77;2.30;;;27.00;54.90;;;;;;5085077;28;20485;-74
2022/06/26 11:39:39;;;;;;;2.60;1.87;;;27.00;55.60;;;;;;5093879;28;20193;-74
2022/06/26 11:42:22;;;;;;;2.20;1.80;;;27.20;55.00;;;;;;5085334;28;20447;-73
2022/06/26 11:44:53;;;;;;;1.97;1.90;;;27.00;53.60;;;;;;5084234;28;20461;-75
2022/06/26 11:47:20;;;;;;;2.13;1.93;;;26.80;55.20;;;;;;5086679;28;20889;-74
2022/06/26 11:49:46;;;;;;;2.20;2.10;;;26.60;56.40;;;;;;5075252;28;20424;-73
2022/06/26 11:52:13;;;;;;;3.07;2.03;;;26.60;56.10;;;;;;5085765;28;20502;-74
2022/06/26 11:54:39;;;;;;;2.57;2.13;;;26.50;56.20;;;;;;5093439;28;20537;-73
2022/06/26 11:57:07;;;;;;;2.20;2.00;;;26.80;55.40;;;;;;5085201;28;20993;-73
2022/06/26 11:59:33;;;;;;;2.27;2.17;;;27.50;54.50;;;;;;5093035;28;20183;-74
2022/06/26 12:01:58;;;;;;;2.30;2.10;;;27.50;53.80;;;;;;5091080;28;20468;-73
2022/06/26 12:04:24;;;;;;;1.93;1.83;;;27.30;54.10;;;;;;5092760;28;20226;-74
2022/06/26 12:06:52;;;;;;;2.50;2.27;;;26.80;54.20;;;;;;5084285;28;20230;-75
2022/06/26 12:09:28;;;;;;;3.90;2.10;;;26.80;54.60;;;;;;5082182;28;20250;-74
2022/06/26 12:11:56;;;;;;;3.53;2.47;;;26.80;55.70;;;;;;5087293;28;20483;-74
2022/06/26 12:14:25;;;;;;;3.40;2.20;;;26.80;55.80;;;;;;5098213;28;20527;-74
2022/06/26 12:16:57;;;;;;;2.20;2.00;;;26.30;57.30;;;;;;5086018;28;20428;-76
2022/06/26 12:19:23;;;;;;;2.40;2.20;;;26.60;56.20;;;;;;5082329;28;20432;-75
2022/06/26 12:21:54;;;;;;;2.80;2.10;;;26.70;55.70;;;;;;5093953;28;20455;-74
2022/06/26 12:24:20;;;;;;;3.20;2.10;;;27.40;55.20;;;;;;5085096;28;20479;-74
2022/06/26 12:26:47;;;;;;;2.60;1.90;;;27.60;53.40;;;;;;5083069;28;20429;-74
2022/06/26 12:29:18;;;;;;;2.23;2.03;;;27.50;52.50;;;;;;5084344;28;20517;-73
2022/06/26 12:31:44;;;;;;;2.33;2.00;;;27.60;52.40;;;;;;5090627;28;20519;-75
2022/06/26 12:34:10;;;;;;;2.30;2.00;;;27.70;52.00;;;;;;5090056;28;20441;-74
2022/06/26 12:36:37;;;;;;;2.80;2.17;;;27.40;53.00;;;;;;5093904;28;20273;-74
2022/06/26 12:39:04;;;;;;;3.03;2.37;;;27.40;53.40;;;;;;5086390;28;21914;-74
2022/06/26 12:41:30;;;;;;;2.40;2.30;;;27.80;52.20;;;;;;5073017;28;20540;-74
2022/06/26 12:44:01;;;;;;;3.00;1.90;;;27.60;53.00;;;;;;5074753;28;20556;-76
2022/06/26 12:46:27;;;;;;;2.80;2.30;;;27.20;54.50;;;;;;5083020;28;20186;-74
2022/06/26 12:48:54;;;;;;;2.80;2.10;;;27.60;54.20;;;;;;5091087;28;20474;-75
2022/06/26 12:51:23;;;;;;;2.37;1.77;;;28.00;51.80;;;;;;5092765;28;20290;-74
2022/06/26 12:53:49;;;;;;;2.43;2.33;;;27.60;51.00;;;;;;5084598;28;20958;-74
2022/06/26 12:56:16;;;;;;;2.40;2.10;;;27.60;52.40;;;;;;5092797;28;20453;-75
2022/06/26 12:58:42;;;;;;;5.30;2.23;;;27.80;52.60;;;;;;5084302;28;20433;-75
2022/06/26 13:01:08;;;;;;;2.90;2.13;;;27.40;54.00;;;;;;5081785;28;20894;-75
2022/06/26 13:03:35;;;;;;;2.30;1.90;;;28.10;53.20;;;;;;5082255;28;20203;-75
2022/06/26 13:06:02;;;;;;;2.93;2.00;;;28.60;50.90;;;;;;5090563;28;20485;-76